Time;durP1;ratioP1;P1;durP2;ratioP2;P2;SDS_P1;SDS_P2;PMS_P1;PMS_P2;Temp;Humidity;BMP_temperature;BMP_pressure;BME280_temperature;BME280_humidity;BME280_pressure;Samples;Min_cycle;Max_cycle;Signal;HPM_P1;HPM_P2
2022/03/25 00:00:49;;;;;;;15.80;12.02;;;16.70;57.50;;;;;;5030354;28;20050;-67
2022/03/25 00:03:16;;;;;;;15.30;11.80;;;16.10;57.30;;;;;;5030809;28;20396;-66
2022/03/25 00:05:43;;;;;;;15.73;11.50;;;16.50;50.10;;;;;;5022088;28;20107;-67
2022/03/25 00:08:10;;;;;;;15.05;12.02;;;16.60;57.30;;;;;;5017505;28;20053;-66
2022/03/25 00:10:37;;;;;;;15.43;12.30;;;;;;;;;;5010850;28;20120;-67
2022/03/25 00:13:05;;;;;;;17.17;12.90;;;16.40;57.60;;;;;;5012043;28;20049;-66
2022/03/25 00:15:33;;;;;;;16.55;12.00;;;15.80;57.30;;;;;;5017685;28;20075;-66
2022/03/25 00:18:00;;;;;;;17.88;11.98;;;16.40;57.70;;;;;;5031676;28;20045;-67
2022/03/25 00:20:26;;;;;;;16.30;12.23;;;16.50;54.70;;;;;;5031227;28;20484;-66
2022/03/25 00:22:53;;;;;;;16.27;12.65;;;;;;;;;;5030478;28;20060;-67
2022/03/25 00:25:20;;;;;;;14.52;11.65;;;17.20;57.90;;;;;;5025288;28;20053;-66
2022/03/25 00:27:47;;;;;;;14.18;11.82;;;;;;;;;;5011766;28;20042;-68
2022/03/25 00:30:14;;;;;;;13.70;11.65;;;16.40;57.80;;;;;;5010143;28;20050;-66
2022/03/25 00:32:42;;;;;;;14.52;12.25;;;16.40;57.80;;;;;;5011991;28;20046;-66
2022/03/25 00:35:10;;;;;;;14.82;12.15;;;;;;;;;;5014059;28;20056;-66
2022/03/25 00:37:37;;;;;;;15.07;12.18;;;15.50;57.00;;;;;;5031359;28;20049;-66
2022/03/25 00:40:04;;;;;;;15.35;12.73;;;16.30;50.30;;;;;;5031287;28;20072;-68
2022/03/25 00:42:31;;;;;;;15.23;11.65;;;16.30;57.90;;;;;;5030249;28;20419;-66
2022/03/25 00:45:01;;;;;;;15.55;12.57;;;15.70;51.80;;;;;;5029372;28;20056;-67
2022/03/25 00:47:28;;;;;;;15.50;12.13;;;;;;;;;;5031518;28;20057;-67
2022/03/25 00:49:56;;;;;;;14.48;12.32;;;16.30;57.70;;;;;;5030990;28;20484;-66
2022/03/25 00:52:24;;;;;;;15.02;12.35;;;;;;;;;;5030269;28;20053;-66
2022/03/25 00:54:51;;;;;;;13.93;11.40;;;;;;;;;;5011921;28;20054;-67
2022/03/25 00:57:18;;;;;;;13.32;11.50;;;15.50;57.60;;;;;;5011707;28;20121;-66
2022/03/25 00:59:44;;;;;;;16.45;12.38;;;16.20;54.70;;;;;;5011499;28;20064;-67
2022/03/25 01:02:11;;;;;;;13.40;12.00;;;15.80;57.40;;;;;;5011350;28;20046;-67
2022/03/25 01:04:38;;;;;;;13.43;11.43;;;;;;;;;;5027628;28;20061;-66
2022/03/25 01:07:06;;;;;;;12.52;10.93;;;16.30;57.90;;;;;;5034690;28;20050;-67
2022/03/25 01:09:34;;;;;;;13.77;11.45;;;16.30;58.00;;;;;;5034853;28;20491;-67
2022/03/25 01:12:01;;;;;;;13.23;11.13;;;;;;;;;;5033799;28;20049;-67
2022/03/25 01:14:28;;;;;;;12.80;11.32;;;16.20;57.70;;;;;;5020260;28;20054;-66
2022/03/25 01:16:55;;;;;;;12.60;11.15;;;;;;;;;;5015051;28;20431;-68
2022/03/25 01:19:21;;;;;;;13.25;10.85;;;16.20;57.90;;;;;;5014946;28;20488;-66
2022/03/25 01:21:48;;;;;;;12.13;10.65;;;15.90;57.50;;;;;;5014883;28;20048;-67
2022/03/25 01:24:16;;;;;;;12.43;11.13;;;16.40;50.40;;;;;;5027337;28;20049;-66
2022/03/25 01:26:43;;;;;;;12.40;10.40;;;15.80;54.10;;;;;;5035044;28;20049;-66
2022/03/25 01:29:10;;;;;;;11.65;10.45;;;16.10;57.90;;;;;;5033291;28;20057;-66
2022/03/25 01:31:36;;;;;;;13.48;11.30;;;16.10;57.70;;;;;;5033200;28;20503;-66
2022/03/25 01:34:03;;;;;;;12.80;10.40;;;16.20;54.30;;;;;;5022892;28;20080;-66
2022/03/25 01:36:30;;;;;;;12.45;11.05;;;16.10;57.90;;;;;;5013808;28;20053;-67
2022/03/25 01:38:56;;;;;;;12.88;10.60;;;16.00;57.60;;;;;;5014794;28;20056;-66
2022/03/25 01:41:25;;;;;;;11.93;10.40;;;15.90;51.80;;;;;;5013043;28;20515;-66
2022/03/25 01:43:53;;;;;;;12.45;11.15;;;16.00;52.60;;;;;;5013722;28;20100;-67
2022/03/25 01:46:20;;;;;;;12.15;10.85;;;15.90;57.60;;;;;;5013303;28;20060;-67
2022/03/25 01:48:48;;;;;;;11.82;10.27;;;;;;;;;;5014522;28;20129;-67
2022/03/25 01:51:16;;;;;;;11.88;10.45;;;16.00;57.80;;;;;;5013348;28;20045;-66
2022/03/25 01:53:43;;;;;;;11.35;10.18;;;15.50;57.70;;;;;;5020220;28;20058;-66
2022/03/25 01:56:10;;;;;;;11.73;10.32;;;;;;;;;;5033151;28;20057;-67
2022/03/25 01:58:38;;;;;;;10.95;9.85;;;16.00;57.60;;;;;;5034248;28;20053;-67
2022/03/25 02:01:05;;;;;;;11.00;9.85;;;15.80;57.80;;;;;;5033698;28;20514;-66
2022/03/25 02:03:32;;;;;;;10.93;9.32;;;15.90;55.30;;;;;;5033789;28;20061;-67
2022/03/25 02:05:58;;;;;;;11.30;9.82;;;16.70;58.20;;;;;;5033717;28;20049;-67
2022/03/25 02:08:25;;;;;;;10.88;9.77;;;16.30;58.30;;;;;;5033140;28;20148;-66
2022/03/25 02:10:52;;;;;;;10.75;9.35;;;;;;;;;;5033484;28;20535;-67
2022/03/25 02:13:19;;;;;;;11.75;10.25;;;15.90;57.90;;;;;;5029148;28;20547;-67
2022/03/25 02:15:47;;;;;;;10.98;9.88;;;15.90;50.20;;;;;;5014233;28;20045;-67
2022/03/25 02:18:15;;;;;;;10.57;9.48;;;16.60;53.30;;;;;;5014153;28;20144;-67
2022/03/25 02:20:42;;;;;;;10.43;9.35;;;16.40;58.00;;;;;;5012633;28;20046;-67
2022/03/25 02:23:10;;;;;;;11.40;10.20;;;16.00;56.50;;;;;;5015675;28;20045;-66
2022/03/25 02:25:38;;;;;;;13.00;9.75;;;;;;;;;;5032636;28;20045;-66
2022/03/25 02:28:05;;;;;;;11.13;10.00;;;15.80;53.00;;;;;;5033403;28;20061;-67
2022/03/25 02:30:33;;;;;;;11.45;10.25;;;;;;;;;;5032233;28;20053;-66
2022/03/25 02:33:01;;;;;;;10.55;9.45;;;15.00;57.10;;;;;;5032177;28;20111;-66
2022/03/25 02:35:38;;;;;;;10.40;9.30;;;15.90;57.90;;;;;;5033821;28;20081;-66
2022/03/25 02:38:05;;;;;;;11.00;9.90;;;16.00;57.70;;;;;;5032086;28;20068;-66
2022/03/25 02:40:33;;;;;;;12.25;9.95;;;15.10;57.60;;;;;;5031551;28;20396;-67
2022/03/25 02:43:00;;;;;;;10.25;9.07;;;;;;;;;;5032210;28;20057;-66
2022/03/25 02:45:27;;;;;;;9.95;8.95;;;15.90;57.70;;;;;;5033442;28;20049;-67
2022/03/25 02:47:54;;;;;;;10.18;9.15;;;15.60;57.50;;;;;;5031954;28;20071;-66
2022/03/25 02:50:21;;;;;;;10.15;9.07;;;15.90;57.90;;;;;;5031804;28;20060;-66
2022/03/25 02:52:47;;;;;;;10.45;9.35;;;15.80;58.00;;;;;;5013653;28;20096;-66
2022/03/25 02:55:15;;;;;;;10.55;9.43;;;;;;;;;;5013174;28;20484;-68
2022/03/25 02:57:43;;;;;;;10.68;9.15;;;15.90;57.10;;;;;;5013256;28;20411;-67
2022/03/25 03:00:10;;;;;;;9.50;8.48;;;16.00;57.90;;;;;;5011623;28;20058;-67
2022/03/25 03:02:38;;;;;;;9.48;8.48;;;;;;;;;;5027604;28;20148;-67
2022/03/25 03:05:07;;;;;;;10.20;9.13;;;15.50;57.90;;;;;;5011834;28;20060;-66
2022/03/25 03:07:35;;;;;;;9.02;8.02;;;15.70;57.90;;;;;;5012017;28;20065;-66
2022/03/25 03:10:03;;;;;;;9.77;8.77;;;15.30;57.80;;;;;;5011648;28;20058;-66
2022/03/25 03:12:30;;;;;;;9.13;8.15;;;14.90;54.20;;;;;;5012861;28;20064;-67
2022/03/25 03:14:58;;;;;;;9.35;8.18;;;15.70;57.80;;;;;;5013024;28;20050;-66
2022/03/25 03:17:24;;;;;;;9.65;8.65;;;15.80;58.00;;;;;;5011909;28;20068;-66
2022/03/25 03:19:51;;;;;;;9.55;8.55;;;16.50;58.10;;;;;;5011337;28;20062;-66
2022/03/25 03:22:18;;;;;;;9.15;8.25;;;15.90;57.70;;;;;;5023399;28;20049;-67
2022/03/25 03:24:45;;;;;;;9.23;8.32;;;15.60;57.40;;;;;;5011434;28;20061;-66
2022/03/25 03:27:13;;;;;;;9.73;8.73;;;;;;;;;;5011750;28;20075;-67
2022/03/25 03:29:40;;;;;;;9.18;8.15;;;;;;;;;;5010876;28;20096;-67
2022/03/25 03:32:09;;;;;;;9.48;8.48;;;16.20;57.30;;;;;;5011361;28;20053;-67
2022/03/25 03:34:36;;;;;;;9.43;8.40;;;15.00;57.10;;;;;;5011525;28;20064;-66
2022/03/25 03:37:02;;;;;;;9.18;8.27;;;15.80;52.90;;;;;;5012553;28;20052;-67
2022/03/25 03:39:29;;;;;;;9.20;8.25;;;15.60;57.50;;;;;;5011349;28;20064;-66
2022/03/25 03:41:56;;;;;;;9.13;8.23;;;15.90;57.60;;;;;;5012296;28;20042;-66
2022/03/25 03:44:23;;;;;;;8.60;7.70;;;15.90;53.80;;;;;;5012841;28;20393;-67
2022/03/25 03:46:49;;;;;;;9.50;8.50;;;15.90;57.80;;;;;;5012700;28;20046;-66
2022/03/25 03:49:17;;;;;;;8.88;7.93;;;16.50;58.20;;;;;;5011516;28;20053;-66
2022/03/25 03:51:44;;;;;;;9.10;8.20;;;15.30;57.10;;;;;;5012862;28;20553;-66
2022/03/25 03:54:11;;;;;;;8.90;8.00;;;15.80;54.00;;;;;;5012382;28;20049;-67
2022/03/25 03:56:37;;;;;;;9.18;8.27;;;15.70;57.30;;;;;;5011430;28;20057;-66
2022/03/25 03:59:04;;;;;;;8.75;7.88;;;15.90;57.60;;;;;;5012275;28;20046;-67
2022/03/25 04:01:31;;;;;;;9.82;8.70;;;;;;;;;;5018710;28;20501;-66
2022/03/25 04:04:00;;;;;;;9.25;8.30;;;16.50;57.80;;;;;;5031984;28;20056;-66
2022/03/25 04:06:28;;;;;;;9.43;8.52;;;15.70;49.80;;;;;;5032091;28;20430;-66
2022/03/25 04:08:56;;;;;;;10.05;8.98;;;;;;;;;;5031666;28;20049;-67
2022/03/25 04:11:22;;;;;;;8.82;7.93;;;15.80;57.40;;;;;;5011806;28;20046;-66
2022/03/25 04:13:51;;;;;;;8.90;8.00;;;;;;;;;;5010996;28;20046;-66
2022/03/25 04:16:18;;;;;;;9.43;8.43;;;15.90;57.70;;;;;;5010971;28;20060;-67
2022/03/25 04:18:44;;;;;;;9.70;8.70;;;16.50;57.80;;;;;;5010763;28;20085;-66
2022/03/25 04:21:12;;;;;;;9.63;8.63;;;15.70;49.80;;;;;;5030105;28;20049;-67
2022/03/25 04:23:40;;;;;;;8.75;7.85;;;15.70;49.90;;;;;;5030692;28;20127;-66
2022/03/25 04:26:07;;;;;;;8.95;8.07;;;15.80;57.40;;;;;;5032052;28;20523;-66
2022/03/25 04:28:33;;;;;;;9.27;8.32;;;16.60;52.60;;;;;;5030458;28;20053;-66
2022/03/25 04:31:00;;;;;;;8.70;7.80;;;14.90;56.80;;;;;;5014079;28;20140;-67
2022/03/25 04:33:27;;;;;;;9.35;8.25;;;15.80;57.50;;;;;;5010694;28;20053;-67
2022/03/25 04:35:54;;;;;;;9.27;8.05;;;15.10;53.10;;;;;;5011826;28;20558;-66
2022/03/25 04:38:20;;;;;;;9.35;8.38;;;15.80;57.70;;;;;;5010559;28;20056;-66
2022/03/25 04:40:52;;;;;;;9.52;8.30;;;16.20;57.70;;;;;;5027222;28;20060;-66
2022/03/25 04:43:18;;;;;;;9.18;8.25;;;15.70;57.40;;;;;;5035314;28;20458;-67
2022/03/25 04:45:46;;;;;;;9.20;8.30;;;15.10;57.30;;;;;;5034225;28;20085;-67
2022/03/25 04:48:14;;;;;;;8.70;7.80;;;15.80;57.60;;;;;;5035686;28;20053;-66
2022/03/25 04:50:41;;;;;;;8.88;7.97;;;15.60;57.60;;;;;;5021552;28;20046;-66
2022/03/25 04:53:08;;;;;;;9.05;8.15;;;;;;;;;;5015822;28;20121;-67
2022/03/25 04:55:35;;;;;;;8.77;7.88;;;15.70;57.70;;;;;;5015595;28;20104;-67
2022/03/25 04:58:03;;;;;;;8.20;7.40;;;14.70;56.80;;;;;;5015209;28;20090;-66
2022/03/25 05:00:30;;;;;;;8.63;7.72;;;15.00;57.30;;;;;;5027030;28;20053;-66
2022/03/25 05:02:56;;;;;;;7.85;7.13;;;15.70;54.00;;;;;;5033759;28;20049;-66
2022/03/25 05:05:23;;;;;;;8.30;7.43;;;16.20;57.80;;;;;;5035254;28;20041;-66
2022/03/25 05:07:50;;;;;;;8.23;7.43;;;15.80;57.30;;;;;;5033744;28;20049;-66
2022/03/25 05:10:17;;;;;;;8.00;7.20;;;16.50;56.70;;;;;;5024697;28;20044;-67
2022/03/25 05:12:44;;;;;;;7.45;6.75;;;16.40;57.70;;;;;;5015468;28;20136;-66
2022/03/25 05:15:12;;;;;;;7.43;6.60;;;16.60;56.50;;;;;;5015210;28;20049;-67
2022/03/25 05:17:44;;;;;;;7.30;6.60;;;15.40;57.30;;;;;;5013919;28;20060;-67
2022/03/25 05:20:12;;;;;;;7.15;6.45;;;15.70;49.70;;;;;;5021990;28;20462;-68
2022/03/25 05:22:39;;;;;;;6.85;6.15;;;;;;;;;;5033418;28;20053;-67
2022/03/25 05:25:07;;;;;;;6.45;5.85;;;15.90;57.50;;;;;;5034682;28;20053;-66
2022/03/25 05:27:44;;;;;;;6.85;6.15;;;16.20;57.50;;;;;;5034783;28;20049;-67
2022/03/25 05:30:12;;;;;;;6.05;5.50;;;16.70;57.90;;;;;;5024675;28;20649;-66
2022/03/25 05:32:39;;;;;;;6.30;5.70;;;16.20;49.90;;;;;;5013944;28;20065;-67
2022/03/25 05:35:07;;;;;;;5.88;5.28;;;15.40;49.40;;;;;;5014820;28;20129;-66
2022/03/25 05:37:34;;;;;;;5.50;5.00;;;15.90;56.00;;;;;;5014930;28;20046;-66
2022/03/25 05:40:00;;;;;;;5.70;5.07;;;16.00;57.40;;;;;;5020920;28;20046;-67
2022/03/25 05:42:27;;;;;;;5.93;5.43;;;;;;;;;;5034779;28;20410;-67
2022/03/25 05:44:54;;;;;;;5.45;4.95;;;15.00;56.90;;;;;;5034664;28;20049;-66
2022/03/25 05:47:22;;;;;;;5.63;5.13;;;15.90;57.30;;;;;;5033501;28;20057;-66
2022/03/25 05:49:49;;;;;;;5.47;4.97;;;15.90;53.30;;;;;;5028543;28;20417;-66
2022/03/25 05:52:16;;;;;;;5.47;4.97;;;15.80;57.00;;;;;;5014035;28;20053;-66
2022/03/25 05:54:43;;;;;;;5.53;5.03;;;15.80;57.00;;;;;;5013475;28;20100;-66
2022/03/25 05:57:10;;;;;;;5.85;5.25;;;;;;;;;;5014356;28;20492;-67
2022/03/25 05:59:37;;;;;;;5.10;4.60;;;15.80;57.30;;;;;;5015984;28;20564;-68
2022/03/25 06:02:04;;;;;;;5.40;4.90;;;15.80;57.20;;;;;;5034041;28;20053;-68
2022/03/25 06:04:32;;;;;;;5.28;4.78;;;15.70;57.10;;;;;;5034061;28;20046;-68
2022/03/25 06:06:58;;;;;;;5.10;4.60;;;15.70;57.10;;;;;;5033685;28;20502;-68
2022/03/25 06:09:25;;;;;;;4.75;4.32;;;16.00;55.30;;;;;;5031266;28;20063;-68
2022/03/25 06:11:52;;;;;;;5.35;4.85;;;;;;;;;;5014010;28;20045;-67
2022/03/25 06:14:19;;;;;;;5.40;4.90;;;16.20;57.10;;;;;;5013129;28;20096;-68
2022/03/25 06:16:46;;;;;;;5.00;4.60;;;15.90;56.90;;;;;;5012992;28;20202;-69
2022/03/25 06:19:13;;;;;;;4.50;4.10;;;;;;;;;;5013949;28;20050;-68
2022/03/25 06:21:41;;;;;;;4.82;4.30;;;15.90;49.30;;;;;;5013536;28;20045;-67
2022/03/25 06:24:08;;;;;;;4.95;4.55;;;;;;;;;;5012786;28;20514;-67
2022/03/25 06:26:35;;;;;;;4.53;4.13;;;15.90;53.50;;;;;;5012874;28;20053;-69
2022/03/25 06:29:02;;;;;;;4.93;4.43;;;16.00;57.10;;;;;;5012876;28;20076;-66
2022/03/25 06:31:29;;;;;;;4.60;4.20;;;16.10;54.60;;;;;;5013145;28;20049;-66
2022/03/25 06:33:56;;;;;;;4.70;4.30;;;15.70;56.60;;;;;;5013968;28;20125;-66
2022/03/25 06:36:23;;;;;;;4.70;4.30;;;;;;;;;;5012466;28;20463;-65
2022/03/25 06:38:51;;;;;;;4.28;3.88;;;16.00;56.30;;;;;;5013384;28;20140;-65
2022/03/25 06:41:17;;;;;;;4.47;4.07;;;16.20;56.90;;;;;;5012998;28;20117;-65
2022/03/25 06:43:44;;;;;;;5.05;4.38;;;16.60;57.10;;;;;;5013582;28;20038;-65
2022/03/25 06:46:11;;;;;;;4.45;4.05;;;;;;;;;;5013007;28;20042;-65
2022/03/25 06:48:39;;;;;;;4.55;4.15;;;15.90;56.90;;;;;;5013255;28;20057;-64
2022/03/25 06:51:08;;;;;;;4.32;3.92;;;16.00;55.70;;;;;;5012606;28;20042;-65
2022/03/25 06:53:35;;;;;;;4.28;3.88;;;16.00;57.00;;;;;;5016853;28;20045;-65
2022/03/25 06:56:04;;;;;;;4.22;3.83;;;16.80;57.10;;;;;;5032008;28;20053;-66
2022/03/25 06:58:34;;;;;;;3.85;3.55;;;;;;;;;;5032467;28;20065;-67
2022/03/25 07:01:02;;;;;;;4.28;3.88;;;;;;;;;;5014574;28;20061;-67
2022/03/25 07:03:29;;;;;;;4.95;4.45;;;16.80;57.10;;;;;;5013662;28;20060;-67
2022/03/25 07:05:56;;;;;;;4.05;3.65;;;16.00;56.80;;;;;;5022377;28;20045;-66
2022/03/25 07:08:23;;;;;;;4.10;3.70;;;15.20;56.10;;;;;;5022338;28;20046;-66
2022/03/25 07:10:50;;;;;;;3.70;3.40;;;16.20;55.30;;;;;;5019772;28;20057;-67
2022/03/25 07:13:19;;;;;;;4.90;4.40;;;16.10;56.50;;;;;;5021778;28;20046;-66
2022/03/25 07:15:46;;;;;;;4.78;4.30;;;;;;;;;;5021485;28;20057;-67
2022/03/25 07:18:13;;;;;;;4.63;4.22;;;16.10;56.40;;;;;;5023690;28;20064;-66
2022/03/25 07:20:40;;;;;;;5.05;4.55;;;15.70;48.50;;;;;;5019616;28;20107;-67
2022/03/25 07:23:07;;;;;;;5.82;4.63;;;16.20;56.30;;;;;;5022290;28;20393;-66
2022/03/25 07:25:33;;;;;;;4.97;4.47;;;15.90;56.30;;;;;;5023702;28;20099;-66
2022/03/25 07:28:00;;;;;;;5.07;4.57;;;16.20;50.60;;;;;;5020583;28;20076;-66
2022/03/25 07:30:28;;;;;;;5.07;4.57;;;16.20;56.20;;;;;;5021083;28;20054;-66
2022/03/25 07:32:55;;;;;;;5.00;4.50;;;16.10;56.20;;;;;;5021627;28;20384;-66
2022/03/25 07:35:21;;;;;;;5.20;4.60;;;16.20;56.20;;;;;;5021744;28;20049;-66
2022/03/25 07:37:48;;;;;;;7.05;5.20;;;;;;;;;;5025226;28;20171;-66
2022/03/25 07:40:15;;;;;;;6.00;5.07;;;16.40;56.70;;;;;;5020517;28;20459;-66
2022/03/25 07:42:43;;;;;;;8.02;5.45;;;;;;;;;;5022011;28;20046;-65
2022/03/25 07:45:10;;;;;;;5.90;4.85;;;16.20;56.40;;;;;;5012948;28;20060;-65
2022/03/25 07:47:41;;;;;;;7.03;5.13;;;16.20;56.40;;;;;;5012737;28;20054;-67
2022/03/25 07:50:09;;;;;;;6.45;5.10;;;15.40;56.10;;;;;;5020149;28;20057;-67
2022/03/25 07:52:36;;;;;;;6.03;4.93;;;15.50;56.60;;;;;;5032363;28;20056;-67
2022/03/25 07:55:03;;;;;;;8.40;5.47;;;;;;;;;;5030920;28;20057;-68
2022/03/25 07:57:30;;;;;;;22.67;17.02;;;15.90;56.00;;;;;;5032271;28;20053;-67
2022/03/25 07:59:58;;;;;;;9.80;7.50;;;16.60;56.50;;;;;;5023871;28;20129;-68
2022/03/25 08:02:25;;;;;;;8.48;7.03;;;;;;;;;;5011044;28;20053;-68
2022/03/25 08:04:53;;;;;;;13.30;10.60;;;16.40;56.40;;;;;;5012267;28;20128;-67
2022/03/25 08:07:21;;;;;;;12.30;9.25;;;15.30;56.10;;;;;;5012085;28;20488;-67
2022/03/25 08:09:47;;;;;;;13.80;9.43;;;15.50;56.00;;;;;;5017984;28;20517;-67
2022/03/25 08:12:14;;;;;;;16.70;9.15;;;16.10;56.50;;;;;;5032225;28;20052;-67
2022/03/25 08:14:41;;;;;;;13.55;9.00;;;;;;;;;;5030745;28;20140;-68
2022/03/25 08:17:09;;;;;;;13.45;9.32;;;17.20;57.10;;;;;;5030963;28;20063;-67
2022/03/25 08:19:36;;;;;;;12.68;9.10;;;;;;;;;;5027384;28;20045;-68
2022/03/25 08:22:04;;;;;;;11.80;9.07;;;15.40;56.00;;;;;;5011998;28;20060;-67
2022/03/25 08:30:00;;;;;;;11.98;8.57;;;15.90;50.00;;;;;;5017910;28;20484;-68
2022/03/25 08:32:26;;;;;;;12.05;7.75;;;16.70;56.00;;;;;;5032232;28;20052;-68
2022/03/25 08:34:53;;;;;;;10.25;7.72;;;16.90;56.10;;;;;;5028918;28;20049;-69
2022/03/25 08:37:21;;;;;;;10.02;7.97;;;16.60;48.70;;;;;;5017465;28;20129;-69
2022/03/25 08:39:49;;;;;;;10.85;6.90;;;16.90;53.90;;;;;;5011396;28;20514;-68
2022/03/25 08:42:16;;;;;;;10.18;7.00;;;;;;;;;;5012118;28;20053;-67
2022/03/25 08:44:43;;;;;;;10.05;6.97;;;16.80;55.90;;;;;;5011736;28;20056;-69
2022/03/25 08:47:10;;;;;;;9.30;7.18;;;;;;;;;;5021081;28;20053;-68
2022/03/25 08:49:37;;;;;;;8.93;7.00;;;16.70;56.00;;;;;;5017875;28;20071;-68
2022/03/25 08:52:04;;;;;;;9.98;7.03;;;16.70;48.60;;;;;;5030542;28;20053;-67
2022/03/25 08:54:32;;;;;;;9.73;6.07;;;17.00;56.10;;;;;;5030579;28;20133;-69
2022/03/25 08:57:00;;;;;;;9.80;6.68;;;16.90;56.20;;;;;;5031556;28;20045;-66
2022/03/25 08:59:27;;;;;;;8.35;6.30;;;16.80;55.90;;;;;;5023942;28;20463;-66
2022/03/25 09:01:56;;;;;;;9.15;6.05;;;16.90;55.90;;;;;;5022443;28;20059;-66
2022/03/25 09:04:23;;;;;;;8.57;6.18;;;;;;;;;;5031724;28;20427;-66
2022/03/25 09:06:49;;;;;;;9.85;6.30;;;16.90;55.60;;;;;;5026259;28;20140;-66
2022/03/25 09:09:16;;;;;;;10.13;6.43;;;17.50;55.90;;;;;;5026862;28;20060;-66
2022/03/25 09:11:45;;;;;;;8.70;6.45;;;16.60;53.20;;;;;;5019920;28;20038;-66
2022/03/25 09:14:14;;;;;;;9.80;6.30;;;16.20;55.30;;;;;;5021262;28;20423;-68
2022/03/25 09:16:40;;;;;;;9.13;6.18;;;17.60;55.90;;;;;;5018879;28;20100;-68
2022/03/25 09:19:08;;;;;;;8.45;6.10;;;16.90;54.60;;;;;;5011857;28;20046;-66
2022/03/25 09:21:35;;;;;;;8.65;6.15;;;15.90;49.40;;;;;;5011396;28;20507;-66
2022/03/25 09:24:02;;;;;;;7.47;5.60;;;17.20;55.90;;;;;;5011586;28;20502;-67
2022/03/25 09:26:28;;;;;;;9.40;6.40;;;15.80;54.80;;;;;;5018253;28;20063;-68
2022/03/25 09:28:57;;;;;;;8.60;6.43;;;16.50;51.40;;;;;;5033864;28;20604;-66
2022/03/25 09:31:24;;;;;;;9.73;6.60;;;16.80;55.60;;;;;;5019792;28;20052;-66
2022/03/25 09:35:08;;;;;;;9.48;6.72;;;16.80;54.70;;;;;;5014071;28;20411;-64
2022/03/25 09:36:38;;;;;;;28.60;14.48;;;16.60;53.10;;;;;;5020697;28;20507;-64
2022/03/25 09:39:04;;;;;;;30.80;16.27;;;16.80;54.60;;;;;;5034384;28;20046;-63
2022/03/25 09:41:31;;;;;;;26.52;15.23;;;15.80;54.20;;;;;;5034541;28;20055;-63
2022/03/25 09:43:59;;;;;;;26.65;17.23;;;16.50;54.20;;;;;;5034453;28;20510;-64
2022/03/25 09:46:26;;;;;;;21.83;15.13;;;16.80;54.50;;;;;;5028888;28;20050;-64
2022/03/25 09:48:53;;;;;;;21.17;13.85;;;16.50;54.50;;;;;;5013779;28;20064;-64
2022/03/25 09:51:20;;;;;;;19.90;13.60;;;;;;;;;;5014587;28;20500;-65
2022/03/25 09:53:47;;;;;;;22.17;13.10;;;16.60;54.80;;;;;;5014723;28;20054;-63
2022/03/25 09:56:15;;;;;;;23.75;13.07;;;16.60;47.10;;;;;;5018077;28;20421;-65
2022/03/25 09:58:42;;;;;;;23.02;12.75;;;;;;;;;;5034328;28;20053;-66
2022/03/25 10:01:10;;;;;;;17.75;11.18;;;16.70;54.40;;;;;;5034274;28;20049;-63
2022/03/25 10:03:39;;;;;;;17.02;11.52;;;16.70;54.40;;;;;;5032924;28;20129;-64
2022/03/25 10:06:10;;;;;;;17.70;11.15;;;17.10;53.80;;;;;;5031815;28;20057;-64
2022/03/25 10:08:38;;;;;;;20.05;9.80;;;16.70;54.70;;;;;;5014630;28;20058;-64
2022/03/25 10:11:24;;;;;;;15.10;9.35;;;16.70;54.30;;;;;;5013960;28;20050;-64
2022/03/25 10:13:50;;;;;;;17.05;9.82;;;16.60;51.70;;;;;;5014193;28;20129;-64
2022/03/25 10:16:28;;;;;;;16.38;8.90;;;16.50;54.70;;;;;;5030316;28;20057;-63
2022/03/25 10:18:56;;;;;;;13.85;9.52;;;16.80;54.70;;;;;;5033811;28;20132;-64
2022/03/25 10:21:23;;;;;;;14.77;9.02;;;17.40;51.20;;;;;;5032639;28;20053;-64
2022/03/25 10:23:50;;;;;;;16.98;8.60;;;;;;;;;;5033676;28;20046;-63
2022/03/25 10:26:17;;;;;;;12.43;8.07;;;;;;;;;;5016443;28;20053;-64
2022/03/25 10:28:46;;;;;;;12.77;8.77;;;17.40;54.80;;;;;;5014186;28;20049;-66
2022/03/25 10:31:14;;;;;;;12.00;7.93;;;17.00;47.80;;;;;;5013538;28;20096;-67
2022/03/25 10:33:45;;;;;;;13.05;8.00;;;16.90;47.40;;;;;;5013860;28;20149;-66
2022/03/25 10:36:12;;;;;;;12.30;8.00;;;17.20;54.80;;;;;;5029962;28;20052;-67
2022/03/25 10:38:44;;;;;;;10.70;7.53;;;16.90;54.90;;;;;;5032351;28;20483;-66
2022/03/25 10:41:11;;;;;;;10.93;7.63;;;;;;;;;;5032164;28;20068;-67
2022/03/25 10:43:48;;;;;;;12.10;7.32;;;17.30;55.10;;;;;;5032038;28;20060;-67
2022/03/25 10:46:30;;;;;;;10.88;6.97;;;17.10;47.50;;;;;;5016793;28;20045;-67
2022/03/25 10:48:58;;;;;;;9.98;6.95;;;17.40;54.90;;;;;;5013631;28;20488;-63
2022/03/25 10:51:25;;;;;;;13.25;7.47;;;;;;;;;;5011891;28;20057;-65
2022/03/25 10:53:57;;;;;;;10.52;6.90;;;16.80;54.40;;;;;;5013700;28;20128;-63
2022/03/25 10:56:23;;;;;;;10.50;6.72;;;17.10;53.00;;;;;;5030447;28;20046;-64
2022/03/25 10:58:53;;;;;;;8.98;6.70;;;17.20;54.40;;;;;;5032982;28;20499;-63
2022/03/25 11:01:20;;;;;;;9.60;6.50;;;17.00;54.50;;;;;;5032531;28;20415;-66
2022/03/25 11:03:49;;;;;;;10.18;6.45;;;17.30;54.70;;;;;;5031698;28;20045;-65
2022/03/25 11:06:18;;;;;;;10.13;6.85;;;17.30;47.30;;;;;;5017081;28;20046;-65
2022/03/25 11:08:45;;;;;;;9.23;6.20;;;17.30;54.80;;;;;;5013277;28;20060;-63
2022/03/25 11:11:12;;;;;;;10.48;6.45;;;16.50;46.90;;;;;;5025736;28;20410;-66
2022/03/25 11:13:39;;;;;;;10.18;6.15;;;17.50;54.60;;;;;;5014821;28;20053;-65
2022/03/25 11:16:07;;;;;;;8.05;5.78;;;;;;;;;;5012691;28;20046;-68
2022/03/25 11:18:33;;;;;;;7.95;5.50;;;17.70;54.90;;;;;;5011940;28;20057;-65
2022/03/25 11:21:00;;;;;;;10.48;5.70;;;17.30;50.30;;;;;;5012533;28;20061;-67
2022/03/25 11:23:29;;;;;;;8.00;5.35;;;17.70;55.10;;;;;;5011793;28;20407;-66
2022/03/25 11:25:57;;;;;;;8.20;5.93;;;17.20;49.10;;;;;;5013716;28;20455;-67
2022/03/25 11:28:28;;;;;;;9.57;5.53;;;17.60;47.70;;;;;;5012220;28;20440;-64
2022/03/25 11:30:58;;;;;;;7.68;5.00;;;17.70;55.20;;;;;;5010776;28;20053;-65
2022/03/25 11:33:25;;;;;;;6.53;5.53;;;;;;;;;;5011414;28;20540;-66
2022/03/25 11:36:12;;;;;;;7.78;5.30;;;17.20;54.70;;;;;;5012944;28;20065;-65
2022/03/25 11:38:40;;;;;;;8.70;4.85;;;17.20;54.70;;;;;;5012708;28;20507;-64
2022/03/25 11:41:21;;;;;;;10.00;5.45;;;17.00;54.80;;;;;;5012306;28;20046;-64
2022/03/25 11:44:14;;;;;;;7.18;5.20;;;18.00;55.20;;;;;;5011622;28;20056;-63
2022/03/25 11:47:14;;;;;;;6.63;4.95;;;17.80;47.90;;;;;;5018852;28;20051;-65
2022/03/25 11:49:41;;;;;;;6.13;4.63;;;;;;;;;;5029238;28;20045;-65
2022/03/25 11:52:26;;;;;;;7.88;5.10;;;18.10;55.20;;;;;;5030941;28;20057;-64
2022/03/25 11:54:55;;;;;;;7.35;5.07;;;17.90;47.90;;;;;;5032379;28;20056;-65
2022/03/25 11:57:23;;;;;;;7.35;4.80;;;17.60;55.20;;;;;;5029752;28;20061;-64
2022/03/25 11:59:50;;;;;;;6.28;4.30;;;18.20;55.20;;;;;;5031739;28;20049;-64
2022/03/25 12:02:31;;;;;;;6.18;4.57;;;18.00;48.80;;;;;;5031657;28;20056;-64
2022/03/25 12:04:58;;;;;;;7.22;5.32;;;18.00;54.30;;;;;;5030654;28;20201;-64
2022/03/25 12:07:24;;;;;;;6.45;4.75;;;17.90;55.50;;;;;;5022212;28;20061;-64
2022/03/25 12:09:51;;;;;;;7.20;4.60;;;;;;;;;;5030517;28;20061;-64
2022/03/25 12:12:20;;;;;;;7.85;5.47;;;17.90;55.30;;;;;;5030635;28;20538;-64
2022/03/25 12:15:05;;;;;;;7.88;4.95;;;18.00;55.40;;;;;;5031654;28;20056;-64
2022/03/25 12:17:32;;;;;;;;;;;18.00;48.50;;;;;;5029324;28;20068;-64
2022/03/25 12:20:00;;;;;;;6.30;5.18;;;18.70;56.00;;;;;;5030739;28;19921;-64
2022/03/25 12:22:38;;;;;;;7.18;4.95;;;18.00;48.00;;;;;;5031835;28;20053;-65
2022/03/25 12:25:21;;;;;;;7.18;5.15;;;18.00;48.00;;;;;;5025366;28;20049;-66
2022/03/25 12:27:52;;;;;;;9.90;4.57;;;18.10;55.20;;;;;;5008244;28;20081;-65
2022/03/25 12:30:19;;;;;;;8.55;4.80;;;18.30;55.70;;;;;;5011302;28;20053;-64
2022/03/25 12:32:46;;;;;;;6.80;4.38;;;18.40;55.70;;;;;;5010857;28;20168;-65
2022/03/25 12:35:16;;;;;;;6.32;4.53;;;18.40;55.40;;;;;;5011884;28;20052;-64
2022/03/25 12:37:48;;;;;;;7.60;4.40;;;18.70;55.90;;;;;;5023710;28;20462;-65
2022/03/25 12:40:16;;;;;;;5.60;4.53;;;18.30;55.50;;;;;;5031206;28;20059;-64
2022/03/25 12:42:43;;;;;;;5.72;4.18;;;18.10;55.40;;;;;;5031570;28;20136;-64
2022/03/25 12:45:12;;;;;;;7.45;4.68;;;17.90;49.70;;;;;;5031423;28;20514;-65
2022/03/25 12:47:43;;;;;;;6.75;5.05;;;17.90;50.70;;;;;;5031213;28;20059;-65
2022/03/25 12:50:10;;;;;;;7.10;4.90;;;18.10;48.10;;;;;;5030357;28;20084;-66
2022/03/25 12:52:37;;;;;;;8.13;5.05;;;18.00;55.10;;;;;;5029555;28;20049;-64
2022/03/25 12:55:08;;;;;;;7.32;4.53;;;18.00;55.10;;;;;;5020379;28;20053;-65
2022/03/25 12:57:36;;;;;;;8.00;4.45;;;17.40;55.10;;;;;;4998926;28;20108;-64
2022/03/25 13:00:03;;;;;;;7.07;4.57;;;;;;;;;;5012049;28;20056;-66
2022/03/25 13:02:33;;;;;;;6.97;4.75;;;17.70;55.00;;;;;;5014137;28;20054;-65
2022/03/25 13:05:11;;;;;;;7.45;4.20;;;17.70;55.40;;;;;;5014387;28;20108;-65
2022/03/25 13:07:39;;;;;;;15.05;5.70;;;18.90;56.50;;;;;;5035131;28;20045;-65